sensor_id;sensor_type;location;lat;lon;timestamp;pressure;altitude;pressure_sealevel;temperature;humidity
67545;BME280;54380;47.770;11.150;2022-07-04T00:02:22;95081.16;;;29.04;44.54
67545;BME280;54380;47.770;11.150;2022-07-04T00:04:49;95093.19;;;29.03;44.81
67545;BME280;54380;47.770;11.150;2022-07-04T00:07:16;95093.97;;;29.03;44.71
67545;BME280;54380;47.770;11.150;2022-07-04T00:09:43;95092.41;;;29.02;44.74
67545;BME280;54380;47.770;11.150;2022-07-04T00:12:09;95091.63;;;29.02;44.56
67545;BME280;54380;47.770;11.150;2022-07-04T00:14:37;95084.59;;;29.01;44.87
67545;BME280;54380;47.770;11.150;2022-07-04T00:17:07;95088.09;;;29.01;44.78
67545;BME280;54380;47.770;11.150;2022-07-04T00:19:33;95096.63;;;29.00;44.78
67545;BME280;54380;47.770;11.150;2022-07-04T00:22:00;95091.22;;;29.00;44.71
67545;BME280;54380;47.770;11.150;2022-07-04T00:24:27;95086.91;;;28.99;44.62
67545;BME280;54380;47.770;11.150;2022-07-04T00:26:53;95079.56;;;28.99;44.70
67545;BME280;54380;47.770;11.150;2022-07-04T00:29:20;95072.53;;;28.98;44.59
67545;BME280;54380;47.770;11.150;2022-07-04T00:31:46;95072.53;;;28.98;44.56
67545;BME280;54380;47.770;11.150;2022-07-04T00:34:13;95078.75;;;28.99;44.56
67545;BME280;54380;47.770;11.150;2022-07-04T00:36:40;95073.69;;;28.97;44.67
67545;BME280;54380;47.770;11.150;2022-07-04T00:39:06;95074.47;;;28.98;44.63
67545;BME280;54380;47.770;11.150;2022-07-04T00:41:33;95076.41;;;28.97;44.52
67545;BME280;54380;47.770;11.150;2022-07-04T00:44:05;95060.09;;;28.97;44.81
67545;BME280;54380;47.770;11.150;2022-07-04T00:46:41;95063.97;;;28.96;45.00
67545;BME280;54380;47.770;11.150;2022-07-04T00:49:10;95049.59;;;28.96;44.93
67545;BME280;54380;47.770;11.150;2022-07-04T00:51:39;95054.25;;;28.95;44.68
67545;BME280;54380;47.770;11.150;2022-07-04T00:54:08;95050.75;;;28.95;44.59
67545;BME280;54380;47.770;11.150;2022-07-04T00:56:36;95038.28;;;28.94;44.65
67545;BME280;54380;47.770;11.150;2022-07-04T00:59:03;95039.47;;;28.93;44.58
67545;BME280;54380;47.770;11.150;2022-07-04T01:01:30;95037.53;;;28.93;44.81
67545;BME280;54380;47.770;11.150;2022-07-04T01:03:57;95033.25;;;28.92;44.87
67545;BME280;54380;47.770;11.150;2022-07-04T01:06:24;95033.25;;;28.92;44.47
67545;BME280;54380;47.770;11.150;2022-07-04T01:08:50;95043.34;;;28.92;44.69
67545;BME280;54380;47.770;11.150;2022-07-04T01:11:17;95046.06;;;28.92;44.71
67545;BME280;54380;47.770;11.150;2022-07-04T01:13:44;95032.81;;;28.90;44.75
67545;BME280;54380;47.770;11.150;2022-07-04T01:16:11;95032.81;;;28.90;44.73
67545;BME280;54380;47.770;11.150;2022-07-04T01:18:38;95041.34;;;28.88;44.65
67545;BME280;54380;47.770;11.150;2022-07-04T01:21:05;95044.06;;;28.88;44.76
67545;BME280;54380;47.770;11.150;2022-07-04T01:23:37;95049.50;;;28.88;44.72
67545;BME280;54380;47.770;11.150;2022-07-04T01:26:04;95041.69;;;28.87;44.86
67545;BME280;54380;47.770;11.150;2022-07-04T01:28:31;95041.69;;;28.87;44.52
67545;BME280;54380;47.770;11.150;2022-07-04T01:30:58;95040.91;;;28.86;44.05
67545;BME280;54380;47.770;11.150;2022-07-04T01:33:24;95035.50;;;28.86;44.70
67545;BME280;54380;47.770;11.150;2022-07-04T01:35:51;95026.56;;;28.86;44.84
67545;BME280;54380;47.770;11.150;2022-07-04T01:38:17;95023.03;;;28.85;44.72
67545;BME280;54380;47.770;11.150;2022-07-04T01:40:44;95014.88;;;28.85;44.60
67545;BME280;54380;47.770;11.150;2022-07-04T01:43:11;95009.84;;;28.84;44.66
67545;BME280;54380;47.770;11.150;2022-07-04T01:45:38;94998.97;;;28.84;44.86
67545;BME280;54380;47.770;11.150;2022-07-04T01:48:09;94981.09;;;28.83;44.81
67545;BME280;54380;47.770;11.150;2022-07-04T01:50:36;94976.81;;;28.82;44.82
67545;BME280;54380;47.770;11.150;2022-07-04T01:53:03;94969.44;;;28.82;44.83
67545;BME280;54380;47.770;11.150;2022-07-04T01:55:30;94964.38;;;28.81;44.65
67545;BME280;54380;47.770;11.150;2022-07-04T01:57:57;94956.25;;;28.81;44.70
67545;BME280;54380;47.770;11.150;2022-07-04T02:00:24;94948.09;;;28.81;44.81
67545;BME280;54380;47.770;11.150;2022-07-04T02:03:10;94936.81;;;28.79;44.63
67545;BME280;54380;47.770;11.150;2022-07-04T02:05:37;94923.22;;;28.79;44.44
67545;BME280;54380;47.770;11.150;2022-07-04T02:08:05;94915.06;;;28.79;44.88
67545;BME280;54380;47.770;11.150;2022-07-04T02:10:32;94908.88;;;28.78;44.54
67545;BME280;54380;47.770;11.150;2022-07-04T02:12:59;94897.19;;;28.78;44.61
67545;BME280;54380;47.770;11.150;2022-07-04T02:15:30;94886.31;;;28.78;44.70
67545;BME280;54380;47.770;11.150;2022-07-04T02:17:58;94880.13;;;28.77;45.01
67545;BME280;54380;47.770;11.150;2022-07-04T02:20:25;94898.34;;;28.77;44.91
67545;BME280;54380;47.770;11.150;2022-07-04T02:22:52;94916.59;;;28.76;44.77
67545;BME280;54380;47.770;11.150;2022-07-04T02:25:19;94922.03;;;28.76;44.83
67545;BME280;54380;47.770;11.150;2022-07-04T02:27:45;94924.75;;;28.76;44.68
67545;BME280;54380;47.770;11.150;2022-07-04T02:30:12;94917.72;;;28.75;45.00
67545;BME280;54380;47.770;11.150;2022-07-04T02:32:39;94911.50;;;28.75;44.95
67545;BME280;54380;47.770;11.150;2022-07-04T02:35:07;94918.88;;;28.74;44.62
67545;BME280;54380;47.770;11.150;2022-07-04T02:37:34;94920.81;;;28.74;44.57
67545;BME280;54380;47.770;11.150;2022-07-04T02:40:02;94933.63;;;28.73;44.80
67545;BME280;54380;47.770;11.150;2022-07-04T02:42:32;94933.63;;;28.73;44.74
67545;BME280;54380;47.770;11.150;2022-07-04T02:45:00;94937.47;;;28.72;44.88
67545;BME280;54380;47.770;11.150;2022-07-04T02:47:26;94942.91;;;28.72;44.92
67545;BME280;54380;47.770;11.150;2022-07-04T02:49:53;94941.34;;;28.71;44.73
67545;BME280;54380;47.770;11.150;2022-07-04T02:52:20;94937.84;;;28.71;44.94
67545;BME280;54380;47.770;11.150;2022-07-04T02:54:47;94935.91;;;28.71;44.99
67545;BME280;54380;47.770;11.150;2022-07-04T02:57:15;94938.19;;;28.69;44.95
67545;BME280;54380;47.770;11.150;2022-07-04T02:59:42;94944.41;;;28.70;45.10
67545;BME280;54380;47.770;11.150;2022-07-04T03:02:08;94942.50;;;28.70;44.96
67545;BME280;54380;47.770;11.150;2022-07-04T03:04:35;94942.84;;;28.69;45.03
67545;BME280;54380;47.770;11.150;2022-07-04T03:07:02;94954.88;;;28.67;44.84
67545;BME280;54380;47.770;11.150;2022-07-04T03:09:28;94963.81;;;28.68;44.84
67545;BME280;54380;47.770;11.150;2022-07-04T03:11:55;94971.94;;;28.68;44.79
67545;BME280;54380;47.770;11.150;2022-07-04T03:14:21;94968.03;;;28.65;44.87
67545;BME280;54380;47.770;11.150;2022-07-04T03:16:48;94975.00;;;28.66;45.05
67545;BME280;54380;47.770;11.150;2022-07-04T03:19:14;94980.44;;;28.66;44.64
67545;BME280;54380;47.770;11.150;2022-07-04T03:21:43;94976.94;;;28.66;44.78
67545;BME280;54380;47.770;11.150;2022-07-04T03:24:10;94977.31;;;28.64;44.82
67545;BME280;54380;47.770;11.150;2022-07-04T03:26:37;94982.75;;;28.64;45.06
67545;BME280;54380;47.770;11.150;2022-07-04T03:29:03;94979.25;;;28.64;44.75
67545;BME280;54380;47.770;11.150;2022-07-04T03:31:31;94992.81;;;28.64;44.92
67545;BME280;54380;47.770;11.150;2022-07-04T03:33:58;94992.03;;;28.63;44.98
67545;BME280;54380;47.770;11.150;2022-07-04T03:36:24;94997.03;;;28.61;44.99
67545;BME280;54380;47.770;11.150;2022-07-04T03:38:51;95012.22;;;28.62;44.89
67545;BME280;54380;47.770;11.150;2022-07-04T03:41:17;95010.63;;;28.61;44.87
67545;BME280;54380;47.770;11.150;2022-07-04T03:43:44;95016.06;;;28.61;44.83
67545;BME280;54380;47.770;11.150;2022-07-04T03:46:11;95023.41;;;28.61;44.97
67545;BME280;54380;47.770;11.150;2022-07-04T03:48:37;95019.94;;;28.60;44.99
67545;BME280;54380;47.770;11.150;2022-07-04T03:51:04;95026.47;;;28.59;44.58
67545;BME280;54380;47.770;11.150;2022-07-04T03:53:30;95037.34;;;28.59;44.95
67545;BME280;54380;47.770;11.150;2022-07-04T03:55:57;95040.88;;;28.60;44.95
67545;BME280;54380;47.770;11.150;2022-07-04T03:58:24;95045.50;;;28.59;44.75
67545;BME280;54380;47.770;11.150;2022-07-04T04:00:50;95033.06;;;28.58;45.00
67545;BME280;54380;47.770;11.150;2022-07-04T04:03:17;95038.16;;;28.60;44.67
67545;BME280;54380;47.770;11.150;2022-07-04T04:06:02;95049.78;;;28.60;44.80
67545;BME280;54380;47.770;11.150;2022-07-04T04:08:29;95054.03;;;28.58;45.00
67545;BME280;54380;47.770;11.150;2022-07-04T04:10:55;95053.63;;;28.59;44.88
67545;BME280;54380;47.770;11.150;2022-07-04T04:13:22;95061.78;;;28.59;45.11
67545;BME280;54380;47.770;11.150;2022-07-04T04:15:48;95063.72;;;28.59;44.79
67545;BME280;54380;47.770;11.150;2022-07-04T04:18:15;95067.22;;;28.59;45.01
67545;BME280;54380;47.770;11.150;2022-07-04T04:20:41;95062.94;;;28.58;45.00
67545;BME280;54380;47.770;11.150;2022-07-04T04:23:08;95070.31;;;28.58;45.06
67545;BME280;54380;47.770;11.150;2022-07-04T04:25:35;95073.81;;;28.58;44.83
67545;BME280;54380;47.770;11.150;2022-07-04T04:28:01;95073.81;;;28.58;44.76
67545;BME280;54380;47.770;11.150;2022-07-04T04:30:28;95073.81;;;28.58;44.39
67545;BME280;54380;47.770;11.150;2022-07-04T04:32:54;95079.22;;;28.58;45.03
67545;BME280;54380;47.770;11.150;2022-07-04T04:35:21;95085.00;;;28.57;44.89
67545;BME280;54380;47.770;11.150;2022-07-04T04:37:48;95085.81;;;28.57;44.88
67545;BME280;54380;47.770;11.150;2022-07-04T04:40:14;95096.69;;;28.57;44.72
67545;BME280;54380;47.770;11.150;2022-07-04T04:42:41;95096.69;;;28.57;44.58
67545;BME280;54380;47.770;11.150;2022-07-04T04:45:08;95103.63;;;28.55;44.74
67545;BME280;54380;47.770;11.150;2022-07-04T04:47:34;95120.31;;;28.57;44.93
67545;BME280;54380;47.770;11.150;2022-07-04T04:50:01;95127.69;;;28.56;44.73
67545;BME280;54380;47.770;11.150;2022-07-04T04:52:27;95127.28;;;28.54;44.74
67545;BME280;54380;47.770;11.150;2022-07-04T04:54:54;95128.06;;;28.55;44.91
67545;BME280;54380;47.770;11.150;2022-07-04T04:57:21;95131.13;;;28.53;45.01
67545;BME280;54380;47.770;11.150;2022-07-04T04:59:47;95134.63;;;28.54;44.85
67545;BME280;54380;47.770;11.150;2022-07-04T05:02:20;95145.47;;;28.54;44.96
67545;BME280;54380;47.770;11.150;2022-07-04T05:04:47;95143.56;;;28.54;44.74
67545;BME280;54380;47.770;11.150;2022-07-04T05:07:13;95156.00;;;28.55;44.68
67545;BME280;54380;47.770;11.150;2022-07-04T05:09:40;95154.44;;;28.54;45.10
67545;BME280;54380;47.770;11.150;2022-07-04T05:12:07;95162.56;;;28.54;44.67
67545;BME280;54380;47.770;11.150;2022-07-04T05:14:34;95159.06;;;28.54;44.69
67545;BME280;54380;47.770;11.150;2022-07-04T05:17:00;95163.69;;;28.53;44.78
67545;BME280;54380;47.770;11.150;2022-07-04T05:19:27;95178.06;;;28.54;44.96
67545;BME280;54380;47.770;11.150;2022-07-04T05:21:54;95180.00;;;28.53;44.87
67545;BME280;54380;47.770;11.150;2022-07-04T05:24:21;95184.66;;;28.53;44.56
67545;BME280;54380;47.770;11.150;2022-07-04T05:26:47;95182.72;;;28.53;44.92
67545;BME280;54380;47.770;11.150;2022-07-04T05:29:14;95177.66;;;28.52;44.99
67545;BME280;54380;47.770;11.150;2022-07-04T05:31:40;95175.72;;;28.52;44.72
67545;BME280;54380;47.770;11.150;2022-07-04T05:34:07;95180.38;;;28.52;44.76
67545;BME280;54380;47.770;11.150;2022-07-04T05:36:34;95183.09;;;28.52;44.49
67545;BME280;54380;47.770;11.150;2022-07-04T05:39:00;95188.50;;;28.52;44.79
67545;BME280;54380;47.770;11.150;2022-07-04T05:41:27;95189.28;;;28.52;44.64
67545;BME280;54380;47.770;11.150;2022-07-04T05:43:53;95195.06;;;28.51;44.96
67545;BME280;54380;47.770;11.150;2022-07-04T05:46:25;95197.00;;;28.50;44.66
67545;BME280;54380;47.770;11.150;2022-07-04T05:48:51;95197.78;;;28.51;44.91
67545;BME280;54380;47.770;11.150;2022-07-04T05:51:18;95202.44;;;28.50;44.97
67545;BME280;54380;47.770;11.150;2022-07-04T05:53:45;95207.44;;;28.48;44.77
67545;BME280;54380;47.770;11.150;2022-07-04T05:56:11;95212.88;;;28.48;44.81
67545;BME280;54380;47.770;11.150;2022-07-04T05:58:38;95210.59;;;28.50;44.82
67545;BME280;54380;47.770;11.150;2022-07-04T06:01:05;95218.72;;;28.50;44.94
67545;BME280;54380;47.770;11.150;2022-07-04T06:03:32;95214.06;;;28.51;44.87
67545;BME280;54380;47.770;11.150;2022-07-04T06:05:58;95209.81;;;28.50;44.60
67545;BME280;54380;47.770;11.150;2022-07-04T06:08:25;95209.03;;;28.49;44.70
67545;BME280;54380;47.770;11.150;2022-07-04T06:10:52;95213.28;;;28.50;44.89
67545;BME280;54380;47.770;11.150;2022-07-04T06:13:18;95214.84;;;28.51;44.75
67545;BME280;54380;47.770;11.150;2022-07-04T06:15:45;95217.22;;;28.53;44.59
67545;BME280;54380;47.770;11.150;2022-07-04T06:18:11;95222.31;;;28.54;44.78
67545;BME280;54380;47.770;11.150;2022-07-04T06:20:38;95221.50;;;28.54;44.60
67545;BME280;54380;47.770;11.150;2022-07-04T06:23:07;95227.31;;;28.52;44.86
67545;BME280;54380;47.770;11.150;2022-07-04T06:25:34;95219.94;;;28.53;44.81
67545;BME280;54380;47.770;11.150;2022-07-04T06:28:01;95224.94;;;28.51;44.79
67545;BME280;54380;47.770;11.150;2022-07-04T06:30:27;95224.16;;;28.50;44.93
67545;BME280;54380;47.770;11.150;2022-07-04T06:32:56;95224.94;;;28.51;44.80
67545;BME280;54380;47.770;11.150;2022-07-04T06:35:26;95216.00;;;28.50;44.59
67545;BME280;54380;47.770;11.150;2022-07-04T06:38:18;95215.22;;;28.50;44.58
67545;BME280;54380;47.770;11.150;2022-07-04T06:40:46;95212.09;;;28.48;44.82
67545;BME280;54380;47.770;11.150;2022-07-04T06:43:13;95214.06;;;28.51;44.66
67545;BME280;54380;47.770;11.150;2022-07-04T06:45:39;95211.78;;;28.53;44.81
67545;BME280;54380;47.770;11.150;2022-07-04T06:48:06;95206.03;;;28.54;44.57
67545;BME280;54380;47.770;11.150;2022-07-04T06:50:34;95206.44;;;28.56;44.77
67545;BME280;54380;47.770;11.150;2022-07-04T06:53:07;95193.63;;;28.57;44.54
67545;BME280;54380;47.770;11.150;2022-07-04T06:55:36;95193.22;;;28.55;44.48
67545;BME280;54380;47.770;11.150;2022-07-04T06:58:03;95200.16;;;28.52;44.64
67545;BME280;54380;47.770;11.150;2022-07-04T07:00:30;95203.22;;;28.51;44.83
67545;BME280;54380;47.770;11.150;2022-07-04T07:02:57;95209.44;;;28.51;44.88
67545;BME280;54380;47.770;11.150;2022-07-04T07:05:25;95212.50;;;28.50;44.54
67545;BME280;54380;47.770;11.150;2022-07-04T07:08:12;95215.56;;;28.48;44.85
67545;BME280;54380;47.770;11.150;2022-07-04T07:10:39;95211.31;;;28.47;44.74
67545;BME280;54380;47.770;11.150;2022-07-04T07:13:05;95212.44;;;28.46;44.76
67545;BME280;54380;47.770;11.150;2022-07-04T07:15:32;95215.94;;;28.47;44.66
67545;BME280;54380;47.770;11.150;2022-07-04T07:18:02;95220.56;;;28.46;44.88
67545;BME280;54380;47.770;11.150;2022-07-04T07:20:29;95244.66;;;28.48;44.79
67545;BME280;54380;47.770;11.150;2022-07-04T07:22:56;95224.88;;;28.47;44.51
67545;BME280;54380;47.770;11.150;2022-07-04T07:25:22;95223.72;;;28.48;44.78
67545;BME280;54380;47.770;11.150;2022-07-04T07:27:49;95210.16;;;28.48;44.78
67545;BME280;54380;47.770;11.150;2022-07-04T07:30:16;95213.63;;;28.49;44.66
67545;BME280;54380;47.770;11.150;2022-07-04T07:32:42;95203.59;;;28.49;44.65
67545;BME280;54380;47.770;11.150;2022-07-04T07:35:09;95199.72;;;28.50;44.65
67545;BME280;54380;47.770;11.150;2022-07-04T07:37:35;95202.09;;;28.52;44.45
67545;BME280;54380;47.770;11.150;2022-07-04T07:40:02;95197.00;;;28.50;44.75
67545;BME280;54380;47.770;11.150;2022-07-04T07:42:29;95186.16;;;28.50;44.58
67545;BME280;54380;47.770;11.150;2022-07-04T07:44:56;95183.09;;;28.52;44.77
67545;BME280;54380;47.770;11.150;2022-07-04T07:47:24;95179.22;;;28.53;44.41
67545;BME280;54380;47.770;11.150;2022-07-04T07:49:50;95181.94;;;28.53;44.61
67545;BME280;54380;47.770;11.150;2022-07-04T07:52:17;95176.94;;;28.55;44.58
67545;BME280;54380;47.770;11.150;2022-07-04T07:54:44;95175.00;;;28.55;44.56
67545;BME280;54380;47.770;11.150;2022-07-04T07:57:25;95166.06;;;28.55;44.08
67545;BME280;54380;47.770;11.150;2022-07-04T07:59:52;95159.50;;;28.56;44.59
67545;BME280;54380;47.770;11.150;2022-07-04T08:02:19;95157.56;;;28.56;44.47
67545;BME280;54380;47.770;11.150;2022-07-04T08:04:45;95151.78;;;28.58;44.43
67545;BME280;54380;47.770;11.150;2022-07-04T08:07:12;95138.97;;;28.58;44.44
67545;BME280;54380;47.770;11.150;2022-07-04T08:09:48;95130.88;;;28.62;44.42
67545;BME280;54380;47.770;11.150;2022-07-04T08:12:15;95124.81;;;28.69;44.21
67545;BME280;54380;47.770;11.150;2022-07-04T08:14:41;95125.00;;;28.79;43.79
67545;BME280;54380;47.770;11.150;2022-07-04T08:17:08;95122.91;;;28.92;43.52
67545;BME280;54380;47.770;11.150;2022-07-04T08:19:37;95119.50;;;28.99;43.18
67545;BME280;54380;47.770;11.150;2022-07-04T08:22:04;95115.28;;;29.01;43.58
67545;BME280;54380;47.770;11.150;2022-07-04T08:24:41;95115.72;;;29.03;43.71
67545;BME280;54380;47.770;11.150;2022-07-04T08:27:08;95118.53;;;29.07;43.20
67545;BME280;54380;47.770;11.150;2022-07-04T08:29:35;95116.50;;;29.27;42.75
67545;BME280;54380;47.770;11.150;2022-07-04T08:32:02;95108.59;;;29.41;42.60
67545;BME280;54380;47.770;11.150;2022-07-04T08:34:29;95104.41;;;29.74;41.66
67545;BME280;54380;47.770;11.150;2022-07-04T08:36:55;95106.06;;;29.82;41.86
67545;BME280;54380;47.770;11.150;2022-07-04T08:39:22;95106.53;;;30.18;41.42
67545;BME280;54380;47.770;11.150;2022-07-04T08:41:52;95100.91;;;30.68;40.01
67545;BME280;54380;47.770;11.150;2022-07-04T08:44:21;95098.69;;;31.25;38.57
67545;BME280;54380;47.770;11.150;2022-07-04T08:46:52;95106.34;;;31.09;38.96
67545;BME280;54380;47.770;11.150;2022-07-04T08:49:25;95109.22;;;30.82;39.42
67545;BME280;54380;47.770;11.150;2022-07-04T08:52:00;95113.53;;;30.49;40.25
67545;BME280;54380;47.770;11.150;2022-07-04T08:54:29;95105.84;;;30.25;40.81
67545;BME280;54380;47.770;11.150;2022-07-04T08:57:15;95105.47;;;30.60;40.27
67545;BME280;54380;47.770;11.150;2022-07-04T09:00:03;95098.66;;;30.39;40.24
67545;BME280;54380;47.770;11.150;2022-07-04T09:02:30;95089.31;;;30.40;40.51
67545;BME280;54380;47.770;11.150;2022-07-04T09:04:59;95076.22;;;30.53;39.98
67545;BME280;54380;47.770;11.150;2022-07-04T09:07:29;95077.94;;;30.72;39.60
67545;BME280;54380;47.770;11.150;2022-07-04T09:09:57;95077.06;;;30.61;39.83
67545;BME280;54380;47.770;11.150;2022-07-04T09:12:24;95070.66;;;30.43;40.36
67545;BME280;54380;47.770;11.150;2022-07-04T09:14:51;95071.31;;;30.29;40.56
67545;BME280;54380;47.770;11.150;2022-07-04T09:17:18;95081.22;;;30.17;40.65
67545;BME280;54380;47.770;11.150;2022-07-04T09:19:45;95074.53;;;30.08;41.29
67545;BME280;54380;47.770;11.150;2022-07-04T09:22:13;95086.47;;;30.00;41.12
67545;BME280;54380;47.770;11.150;2022-07-04T09:24:49;95092.94;;;29.88;41.50
67545;BME280;54380;47.770;11.150;2022-07-04T09:27:35;95097.81;;;29.75;41.89
67545;BME280;54380;47.770;11.150;2022-07-04T09:30:03;95104.31;;;29.67;42.30
67545;BME280;54380;47.770;11.150;2022-07-04T09:32:47;95102.69;;;29.62;42.05
67545;BME280;54380;47.770;11.150;2022-07-04T09:35:20;95099.88;;;29.59;42.38
67545;BME280;54380;47.770;11.150;2022-07-04T09:37:55;95120.81;;;29.54;42.52
67545;BME280;54380;47.770;11.150;2022-07-04T09:40:36;95122.34;;;29.52;42.70
67545;BME280;54380;47.770;11.150;2022-07-04T09:43:22;95119.19;;;29.50;42.41
67545;BME280;54380;47.770;11.150;2022-07-04T09:45:55;95118.81;;;29.51;42.83
67545;BME280;54380;47.770;11.150;2022-07-04T09:48:23;95116.09;;;29.51;42.80
67545;BME280;54380;47.770;11.150;2022-07-04T09:50:50;95122.69;;;29.50;42.43
67545;BME280;54380;47.770;11.150;2022-07-04T09:53:17;95124.25;;;29.51;42.79
67545;BME280;54380;47.770;11.150;2022-07-04T09:55:44;95124.22;;;29.48;42.58
67545;BME280;54380;47.770;11.150;2022-07-04T09:58:15;95119.50;;;29.45;42.61
67545;BME280;54380;47.770;11.150;2022-07-04T10:00:44;95119.88;;;29.43;42.57
67545;BME280;54380;47.770;11.150;2022-07-04T10:03:27;95121.03;;;29.42;42.82
67545;BME280;54380;47.770;11.150;2022-07-04T10:08:32;95109.69;;;29.37;43.23
67545;BME280;54380;47.770;11.150;2022-07-04T10:11:00;95111.63;;;29.36;42.83
67545;BME280;54380;47.770;11.150;2022-07-04T10:13:34;95103.03;;;29.34;43.25
67545;BME280;54380;47.770;11.150;2022-07-04T10:16:00;95108.47;;;29.34;42.91
67545;BME280;54380;47.770;11.150;2022-07-04T10:18:27;95114.25;;;29.32;43.24
67545;BME280;54380;47.770;11.150;2022-07-04T10:20:55;95109.59;;;29.33;43.14
67545;BME280;54380;47.770;11.150;2022-07-04T10:23:23;95110.75;;;29.32;42.94
67545;BME280;54380;47.770;11.150;2022-07-04T10:25:52;95111.53;;;29.32;43.17
67545;BME280;54380;47.770;11.150;2022-07-04T10:28:20;95112.69;;;29.31;43.17
67545;BME280;54380;47.770;11.150;2022-07-04T10:30:52;95111.94;;;29.31;42.88
67545;BME280;54380;47.770;11.150;2022-07-04T10:33:24;95112.31;;;29.33;43.16
67545;BME280;54380;47.770;11.150;2022-07-04T10:35:59;95103.38;;;29.32;43.08
67545;BME280;54380;47.770;11.150;2022-07-04T10:38:31;95101.88;;;29.35;43.28
67545;BME280;54380;47.770;11.150;2022-07-04T10:41:02;95104.28;;;29.40;42.96
67545;BME280;54380;47.770;11.150;2022-07-04T10:49:03;95104.81;;;29.49;42.85
67545;BME280;54380;47.770;11.150;2022-07-04T10:51:41;95109.13;;;29.54;42.50
67545;BME280;54380;47.770;11.150;2022-07-04T10:59:11;95098.38;;;29.61;42.71
67545;BME280;54380;47.770;11.150;2022-07-04T11:17:55;95072.50;;;29.71;42.31
67545;BME280;54380;47.770;11.150;2022-07-04T11:20:23;95069.41;;;29.72;42.52
67545;BME280;54380;47.770;11.150;2022-07-04T11:22:50;95073.31;;;29.75;42.28
67545;BME280;54380;47.770;11.150;2022-07-04T11:25:17;95073.75;;;29.77;42.36
67545;BME280;54380;47.770;11.150;2022-07-04T11:27:43;95074.16;;;29.79;42.20
67545;BME280;54380;47.770;11.150;2022-07-04T11:30:10;95075.38;;;29.82;42.38
67545;BME280;54380;47.770;11.150;2022-07-04T11:32:41;95070.34;;;29.84;42.39
67545;BME280;54380;47.770;11.150;2022-07-04T11:35:08;95074.63;;;29.85;42.35
67545;BME280;54380;47.770;11.150;2022-07-04T11:37:34;95073.88;;;29.88;41.98
67545;BME280;54380;47.770;11.150;2022-07-04T11:40:01;95075.47;;;29.89;42.30
67545;BME280;54380;47.770;11.150;2022-07-04T11:43:06;95067.66;;;29.87;42.13
67545;BME280;54380;47.770;11.150;2022-07-04T11:45:52;95068.88;;;29.90;42.34
67545;BME280;54380;47.770;11.150;2022-07-04T11:48:23;95062.25;;;29.91;41.81
67545;BME280;54380;47.770;11.150;2022-07-04T11:50:50;95057.22;;;29.93;41.87
67545;BME280;54380;47.770;11.150;2022-07-04T11:53:17;95050.28;;;29.95;42.34
67545;BME280;54380;47.770;11.150;2022-07-04T11:55:57;95049.91;;;29.97;42.26
67545;BME280;54380;47.770;11.150;2022-07-04T11:58:42;95036.72;;;29.99;42.30
67545;BME280;54380;47.770;11.150;2022-07-04T12:01:09;95027.75;;;29.98;42.11
67545;BME280;54380;47.770;11.150;2022-07-04T12:03:38;95027.75;;;29.98;42.15
67545;BME280;54380;47.770;11.150;2022-07-04T12:06:05;95032.06;;;30.00;42.03
67545;BME280;54380;47.770;11.150;2022-07-04T12:08:32;95028.94;;;30.01;42.30
67545;BME280;54380;47.770;11.150;2022-07-04T12:10:59;95026.22;;;30.01;42.14
67545;BME280;54380;47.770;11.150;2022-07-04T12:13:25;95029.38;;;30.03;42.15
67545;BME280;54380;47.770;11.150;2022-07-04T12:15:52;95024.69;;;30.04;41.77
67545;BME280;54380;47.770;11.150;2022-07-04T12:20:51;95020.44;;;30.06;42.19
67545;BME280;54380;47.770;11.150;2022-07-04T12:23:19;95018.50;;;30.07;41.99
67545;BME280;54380;47.770;11.150;2022-07-04T12:25:48;95017.72;;;30.06;42.15
67545;BME280;54380;47.770;11.150;2022-07-04T12:28:17;95017.38;;;30.08;42.30
67545;BME280;54380;47.770;11.150;2022-07-04T12:30:50;95019.69;;;30.09;41.80
67545;BME280;54380;47.770;11.150;2022-07-04T12:33:21;95010.41;;;30.10;42.16
67545;BME280;54380;47.770;11.150;2022-07-04T12:35:54;95019.34;;;30.11;42.18
67545;BME280;54380;47.770;11.150;2022-07-04T12:38:33;95010.81;;;30.12;42.10
67545;BME280;54380;47.770;11.150;2022-07-04T12:43:48;95002.28;;;30.17;41.80
67545;BME280;54380;47.770;11.150;2022-07-04T12:48:51;95005.75;;;30.14;42.08
67545;BME280;54380;47.770;11.150;2022-07-04T12:51:20;94999.19;;;30.15;42.20
67545;BME280;54380;47.770;11.150;2022-07-04T12:53:49;95000.38;;;30.18;42.08
67545;BME280;54380;47.770;11.150;2022-07-04T12:58:56;94997.66;;;30.18;41.83
67545;BME280;54380;47.770;11.150;2022-07-04T13:01:22;94977.78;;;30.17;41.87
67545;BME280;54380;47.770;11.150;2022-07-04T13:03:49;94984.44;;;30.20;41.86
67545;BME280;54380;47.770;11.150;2022-07-04T13:06:15;94978.22;;;30.19;41.84
67545;BME280;54380;47.770;11.150;2022-07-04T13:08:42;94984.44;;;30.20;41.78
67545;BME280;54380;47.770;11.150;2022-07-04T13:11:09;94985.97;;;30.17;42.30
67545;BME280;54380;47.770;11.150;2022-07-04T13:13:54;94974.28;;;30.17;41.87
67545;BME280;54380;47.770;11.150;2022-07-04T13:16:21;94976.25;;;30.16;42.13
67545;BME280;54380;47.770;11.150;2022-07-04T13:18:47;94980.50;;;30.17;42.38
67545;BME280;54380;47.770;11.150;2022-07-04T13:21:15;94970.44;;;30.18;41.90
67545;BME280;54380;47.770;11.150;2022-07-04T13:23:41;94971.22;;;30.18;42.25
67545;BME280;54380;47.770;11.150;2022-07-04T13:26:08;94972.00;;;30.19;42.31
67545;BME280;54380;47.770;11.150;2022-07-04T13:28:35;94963.81;;;30.19;42.29
67545;BME280;54380;47.770;11.150;2022-07-04T13:31:03;94956.81;;;30.18;42.02
67545;BME280;54380;47.770;11.150;2022-07-04T13:33:30;94947.50;;;30.19;42.27
67545;BME280;54380;47.770;11.150;2022-07-04T13:35:57;94945.94;;;30.18;42.10
67545;BME280;54380;47.770;11.150;2022-07-04T13:38:23;94948.25;;;30.19;42.13